createdAt,value
2018-04-18T00:01:57.690Z,2.60
2018-04-18T00:04:24.421Z,2.43
2018-04-18T00:06:51.278Z,2.47
2018-04-18T00:09:17.989Z,2.70
2018-04-18T00:11:44.695Z,2.93
2018-04-18T00:14:11.478Z,2.77
2018-04-18T00:16:38.358Z,2.57
2018-04-18T00:19:05.083Z,2.37
2018-04-18T00:21:31.818Z,2.60
2018-04-18T00:23:58.548Z,2.43
2018-04-18T00:26:25.316Z,2.43
2018-04-18T00:28:52.083Z,3.00
2018-04-18T00:31:18.823Z,2.77
2018-04-18T00:33:45.536Z,2.87
2018-04-18T00:36:12.275Z,3.10
2018-04-18T00:38:39.057Z,2.80
2018-04-18T00:41:05.804Z,2.70
2018-04-18T00:43:33.356Z,2.77
2018-04-18T00:46:00.856Z,2.53
2018-04-18T00:48:27.831Z,2.63
2018-04-18T00:50:54.624Z,2.50
2018-04-18T00:53:21.391Z,2.50
2018-04-18T00:55:48.194Z,2.20
2018-04-18T00:58:14.944Z,2.70
2018-04-18T01:00:41.701Z,2.70
2018-04-18T01:03:10.648Z,2.87
2018-04-18T01:05:38.445Z,2.57
2018-04-18T01:08:05.469Z,2.57
2018-04-18T01:10:32.521Z,2.60
2018-04-18T01:12:59.569Z,2.50
2018-04-18T01:15:26.606Z,2.70
2018-04-18T01:17:53.636Z,2.90
2018-04-18T01:20:20.648Z,2.90
2018-04-18T01:22:47.681Z,2.80
2018-04-18T01:25:14.739Z,2.97
2018-04-18T01:27:41.798Z,3.30
2018-04-18T01:30:08.826Z,2.80
2018-04-18T01:32:35.855Z,2.70
2018-04-18T01:35:02.931Z,3.07
2018-04-18T01:37:29.938Z,2.87
2018-04-18T01:39:56.938Z,2.97
2018-04-18T01:42:24.070Z,2.90
2018-04-18T01:44:51.196Z,2.43
2018-04-18T01:47:18.232Z,2.90
2018-04-18T01:49:45.301Z,3.03
2018-04-18T01:52:12.399Z,3.00
2018-04-18T01:54:39.426Z,2.67
2018-04-18T01:57:06.506Z,3.30
2018-04-18T01:59:34.364Z,2.70
2018-04-18T02:02:01.416Z,2.80
2018-04-18T02:04:29.247Z,2.80
2018-04-18T02:06:56.286Z,2.80
2018-04-18T02:09:23.341Z,3.03
2018-04-18T02:11:50.341Z,3.37
2018-04-18T02:14:18.068Z,2.97
2018-04-18T02:16:45.048Z,3.20
2018-04-18T02:19:12.747Z,3.30
2018-04-18T02:21:40.588Z,3.33
2018-04-18T02:24:07.658Z,3.20
2018-04-18T02:26:34.721Z,2.97
2018-04-18T02:29:01.901Z,3.10
2018-04-18T02:31:29.010Z,2.90
2018-04-18T02:33:56.093Z,3.20
2018-04-18T02:36:23.233Z,3.53
2018-04-18T02:38:50.359Z,3.40
2018-04-18T02:41:17.475Z,3.20
2018-04-18T02:43:44.538Z,3.40
2018-04-18T02:46:11.787Z,3.50
2018-04-18T02:48:38.858Z,3.20
2018-04-18T02:51:06.027Z,3.00
2018-04-18T02:53:33.069Z,3.17
2018-04-18T02:56:00.142Z,3.03
2018-04-18T02:58:27.929Z,3.20
2018-04-18T03:00:55.704Z,3.10
2018-04-18T03:03:22.825Z,3.17
2018-04-18T03:05:49.874Z,3.50
2018-04-18T03:08:16.906Z,3.53
2018-04-18T03:10:43.976Z,3.83
2018-04-18T03:13:11.759Z,4.47
2018-04-18T03:15:39.552Z,4.10
2018-04-18T03:18:06.684Z,3.70
2018-04-18T03:20:33.819Z,3.67
2018-04-18T03:23:00.819Z,3.87
2018-04-18T03:25:27.853Z,4.00
2018-04-18T03:27:54.894Z,3.27
2018-04-18T03:30:21.938Z,3.47
2018-04-18T03:32:49.052Z,4.17
2018-04-18T03:35:16.845Z,3.50
2018-04-18T03:37:43.883Z,3.40
2018-04-18T03:40:10.943Z,3.43
2018-04-18T03:42:38.004Z,3.60
2018-04-18T03:45:05.063Z,3.93
2018-04-18T03:47:32.250Z,3.83
2018-04-18T03:49:59.251Z,3.63
2018-04-18T03:52:26.272Z,3.90
2018-04-18T03:54:53.306Z,3.67
2018-04-18T03:57:20.399Z,4.13
2018-04-18T03:59:47.529Z,3.90
2018-04-18T04:02:14.586Z,4.03
2018-04-18T04:04:41.844Z,5.30
2018-04-18T04:07:08.891Z,3.70
2018-04-18T04:09:35.939Z,3.30
2018-04-18T04:12:02.992Z,3.70
2018-04-18T04:14:30.037Z,4.30
2018-04-18T04:17:15.096Z,4.07
2018-04-18T04:20:00.132Z,3.80
2018-04-18T04:22:45.164Z,3.67
2018-04-18T04:25:12.131Z,3.50
2018-04-18T04:27:39.896Z,4.00
2018-04-18T04:30:07.629Z,4.00
2018-04-18T04:32:34.601Z,3.50
2018-04-18T04:35:02.386Z,3.70
2018-04-18T04:37:29.517Z,4.90
2018-04-18T04:39:57.369Z,3.50
2018-04-18T04:42:24.410Z,4.37
2018-04-18T04:44:51.472Z,3.83
2018-04-18T04:47:18.515Z,3.50
2018-04-18T04:49:45.575Z,4.00
2018-04-18T04:52:13.405Z,3.93
2018-04-18T04:54:40.427Z,3.63
2018-04-18T04:57:07.564Z,4.53
2018-04-18T04:59:34.642Z,4.10
2018-04-18T05:02:01.652Z,4.10
2018-04-18T05:04:28.689Z,5.00
2018-04-18T05:06:55.826Z,4.57
2018-04-18T05:09:22.925Z,4.50
2018-04-18T05:11:50.645Z,4.17
2018-04-18T05:14:23.345Z,4.10
2018-04-18T05:16:51.873Z,4.77
2018-04-18T05:19:18.983Z,4.43
2018-04-18T05:21:46.032Z,3.90
2018-04-18T05:24:13.179Z,4.37
2018-04-18T05:26:40.223Z,3.67
2018-04-18T05:29:07.317Z,4.47
2018-04-18T05:31:34.370Z,4.90
2018-04-18T05:34:01.403Z,5.10
2018-04-18T05:36:28.495Z,6.10
2018-04-18T05:39:03.054Z,5.13
2018-04-18T05:41:31.170Z,4.20
2018-04-18T05:43:58.196Z,4.47
2018-04-18T05:46:25.233Z,4.60
2018-04-18T05:48:52.286Z,4.57
2018-04-18T05:51:19.348Z,5.70
2018-04-18T05:53:46.383Z,8.63
2018-04-18T05:56:13.428Z,8.10
2018-04-18T05:58:40.576Z,6.47
2018-04-18T06:01:07.639Z,7.30
2018-04-18T06:03:34.668Z,5.97
2018-04-18T06:06:01.685Z,5.60
2018-04-18T06:08:28.778Z,4.93
2018-04-18T06:10:55.818Z,4.90
2018-04-18T06:13:22.898Z,4.93
2018-04-18T06:15:50.731Z,5.63
2018-04-18T06:18:17.758Z,4.80
2018-04-18T06:20:44.839Z,4.47
2018-04-18T06:23:11.876Z,4.27
2018-04-18T06:25:38.963Z,4.50
2018-04-18T06:28:06.766Z,4.40
2018-04-18T06:30:34.562Z,7.13
2018-04-18T06:33:01.611Z,4.97
2018-04-18T06:35:28.615Z,4.10
2018-04-18T06:37:55.653Z,4.20
2018-04-18T06:40:23.363Z,4.20
2018-04-18T06:42:50.368Z,4.73
2018-04-18T06:45:17.350Z,3.97
2018-04-18T06:47:44.392Z,4.37
2018-04-18T06:50:12.221Z,4.17
2018-04-18T06:52:39.260Z,4.90
2018-04-18T06:55:06.988Z,4.50
2018-04-18T06:57:33.960Z,5.40
2018-04-18T07:00:01.959Z,4.97
2018-04-18T07:02:28.986Z,4.57
2018-04-18T07:04:56.712Z,5.07
2018-04-18T07:07:23.753Z,5.00
2018-04-18T07:09:50.871Z,5.40
2018-04-18T07:12:17.854Z,6.10
2018-04-18T07:14:44.826Z,5.93
2018-04-18T07:17:11.831Z,5.33
2018-04-18T07:19:38.909Z,5.43
2018-04-18T07:22:05.896Z,5.07
2018-04-18T07:24:32.887Z,5.40
2018-04-18T07:26:59.979Z,5.17
2018-04-18T07:29:27.087Z,5.40
2018-04-18T07:31:54.129Z,5.67
2018-04-18T07:34:21.180Z,5.23
2018-04-18T07:36:48.197Z,5.90
2018-04-18T07:39:15.182Z,6.50
2018-04-18T07:41:42.211Z,6.90
2018-04-18T07:44:09.194Z,8.20
2018-04-18T07:46:36.175Z,8.33
2018-04-18T07:49:03.219Z,8.53
2018-04-18T07:51:30.220Z,7.60
2018-04-18T07:53:57.190Z,8.30
2018-04-18T07:56:24.920Z,7.67
2018-04-18T07:58:51.897Z,7.43
2018-04-18T08:01:18.894Z,8.80
2018-04-18T08:03:45.900Z,7.73
2018-04-18T08:06:13.696Z,7.80
2018-04-18T08:08:40.692Z,7.53
2018-04-18T08:11:07.664Z,8.30
2018-04-18T08:13:34.654Z,8.47
2018-04-18T08:16:01.642Z,8.70
2018-04-18T08:18:29.349Z,7.97
2018-04-18T08:20:56.311Z,7.43
2018-04-18T08:23:23.376Z,7.37
2018-04-18T08:25:50.440Z,7.87
2018-04-18T08:28:18.269Z,6.70
2018-04-18T08:30:45.315Z,7.03
2018-04-18T08:33:12.395Z,6.70
2018-04-18T08:35:39.449Z,7.73
2018-04-18T08:38:06.499Z,7.23
2018-04-18T08:40:33.539Z,6.77
2018-04-18T08:43:00.684Z,6.73
2018-04-18T08:45:27.747Z,7.23
2018-04-18T08:47:54.787Z,6.50
2018-04-18T08:50:21.867Z,7.07
2018-04-18T08:52:49.758Z,6.70
2018-04-18T08:55:16.831Z,8.60
2018-04-18T08:57:43.911Z,6.37
2018-04-18T09:03:17.983Z,6.67
2018-04-18T09:05:45.195Z,6.73
2018-04-18T09:08:13.003Z,10.47
2018-04-18T09:10:39.993Z,6.80
2018-04-18T09:13:06.976Z,7.47
2018-04-18T09:15:34.728Z,7.23
2018-04-18T09:18:02.503Z,6.70
2018-04-18T09:20:30.228Z,8.10
2018-04-18T09:22:57.295Z,7.43
2018-04-18T09:25:24.319Z,10.47
2018-04-18T09:27:51.355Z,6.97
2018-04-18T09:30:18.365Z,6.93
2018-04-18T09:32:45.430Z,7.27
2018-04-18T09:35:12.429Z,7.03
2018-04-18T09:37:39.538Z,7.70
2018-04-18T09:40:06.577Z,7.57
2018-04-18T09:42:33.565Z,6.80
2018-04-18T09:45:00.545Z,6.93
2018-04-18T09:47:27.530Z,6.77
2018-04-18T09:49:54.546Z,6.97
2018-04-18T09:52:21.526Z,7.40
2018-04-18T09:54:48.543Z,6.67
2018-04-18T09:57:15.563Z,7.37
2018-04-18T09:59:43.396Z,6.90
2018-04-18T10:02:16.393Z,6.90
2018-04-18T10:04:44.186Z,19.20
2018-04-18T10:07:12.926Z,7.30
2018-04-18T10:09:39.943Z,6.80
2018-04-18T10:12:06.916Z,6.57
2018-04-18T10:14:33.941Z,7.43
2018-04-18T10:17:00.913Z,6.73
2018-04-18T10:19:27.916Z,7.13
2018-04-18T10:21:55.633Z,7.20
2018-04-18T10:24:22.628Z,8.07
2018-04-18T10:26:50.333Z,7.33
2018-04-18T10:29:17.653Z,6.90
2018-04-18T10:31:44.703Z,5.87
2018-04-18T10:34:11.817Z,6.30
2018-04-18T10:36:39.722Z,6.50
2018-04-18T10:39:06.912Z,5.93
2018-04-18T10:41:33.965Z,5.90
2018-04-18T10:44:01.098Z,5.80
2018-04-18T10:46:28.230Z,5.43
2018-04-18T10:48:55.311Z,5.63
2018-04-18T10:51:22.425Z,6.47
2018-04-18T10:53:49.515Z,6.57
2018-04-18T10:56:16.573Z,6.90
2018-04-18T10:58:43.636Z,6.80
2018-04-18T11:01:10.734Z,6.00
2018-04-18T11:03:37.907Z,6.20
2018-04-18T11:06:05.079Z,6.20
2018-04-18T11:08:32.938Z,5.63
2018-04-18T11:11:00.769Z,6.00
2018-04-18T11:13:27.851Z,6.40
2018-04-18T11:15:55.671Z,7.37
2018-04-18T11:18:22.731Z,5.70
2018-04-18T11:20:49.743Z,6.73
2018-04-18T11:23:16.805Z,6.23
2018-04-18T11:25:43.878Z,6.30
2018-04-18T11:28:10.895Z,6.00
2018-04-18T11:30:38.829Z,6.37
2018-04-18T11:33:05.834Z,5.63
2018-04-18T11:35:32.893Z,6.17
2018-04-18T11:38:00.001Z,6.33
2018-04-18T11:40:27.762Z,6.50
2018-04-18T11:42:54.788Z,6.03
2018-04-18T11:45:21.886Z,6.43
2018-04-18T11:47:49.003Z,6.30
2018-04-18T11:50:16.009Z,6.20
2018-04-18T11:52:43.067Z,6.03
2018-04-18T11:55:10.864Z,6.70
2018-04-18T11:57:37.937Z,6.97
2018-04-18T12:00:05.738Z,6.43
2018-04-18T12:02:32.735Z,6.37
2018-04-18T12:04:59.771Z,6.57
2018-04-18T12:07:27.613Z,6.90
2018-04-18T12:09:54.664Z,6.50
2018-04-18T12:12:21.745Z,6.60
2018-04-18T12:14:48.804Z,5.93
2018-04-18T12:17:15.804Z,6.23
2018-04-18T12:19:43.581Z,6.30
2018-04-18T12:22:11.384Z,6.27
2018-04-18T12:24:38.471Z,6.00
2018-04-18T12:27:06.283Z,5.80
2018-04-18T12:29:33.333Z,6.80
2018-04-18T12:32:00.355Z,5.40
2018-04-18T12:34:28.143Z,5.73
2018-04-18T12:36:55.154Z,7.40
2018-04-18T12:39:22.973Z,7.40
2018-04-18T12:41:50.019Z,7.17
2018-04-18T12:44:17.049Z,5.47
2018-04-18T12:46:44.161Z,6.20
2018-04-18T12:49:11.201Z,5.70
2018-04-18T12:51:38.232Z,5.70
2018-04-18T12:54:06.005Z,6.00
2018-04-18T12:56:33.077Z,6.87
2018-04-18T12:59:00.109Z,6.03
2018-04-18T13:01:27.154Z,5.70
2018-04-18T13:03:54.131Z,6.80
2018-04-18T13:06:21.169Z,6.20
2018-04-18T13:08:48.194Z,8.50
2018-04-18T13:11:15.242Z,7.33
2018-04-18T13:13:42.295Z,7.50
2018-04-18T13:16:09.345Z,5.90
2018-04-18T13:18:36.528Z,6.03
2018-04-18T13:21:04.292Z,6.27
2018-04-18T13:23:32.055Z,7.20
2018-04-18T13:25:59.087Z,5.93
2018-04-18T13:28:26.094Z,7.43
2018-04-18T13:30:53.146Z,6.83
2018-04-18T13:33:20.159Z,6.50
2018-04-18T13:35:47.153Z,8.07
2018-04-18T13:38:14.254Z,7.67
2018-04-18T13:40:41.241Z,6.50
2018-04-18T13:43:08.276Z,6.30
2018-04-18T13:45:35.404Z,7.67
2018-04-18T13:48:02.414Z,6.40
2018-04-18T13:50:30.183Z,8.93
2018-04-18T13:52:57.278Z,6.53
2018-04-18T13:55:24.290Z,7.73
2018-04-18T13:57:52.035Z,6.93
2018-04-18T14:00:19.003Z,7.90
2018-04-18T14:02:46.735Z,6.50
2018-04-18T14:05:14.519Z,6.67
2018-04-18T14:07:41.541Z,6.90
2018-04-18T14:10:08.565Z,6.50
2018-04-18T14:12:35.571Z,6.80
2018-04-18T14:15:02.649Z,6.37
2018-04-18T14:17:29.681Z,6.90
2018-04-18T14:19:56.680Z,6.90
2018-04-18T14:22:23.688Z,6.60
2018-04-18T14:24:50.692Z,6.50
2018-04-18T14:27:17.711Z,6.03
2018-04-18T14:29:44.698Z,6.77
2018-04-18T14:32:12.425Z,6.97
2018-04-18T14:34:39.430Z,6.73
2018-04-18T14:37:06.483Z,6.33
2018-04-18T14:39:33.551Z,6.40
2018-04-18T14:42:00.568Z,6.70
2018-04-18T14:44:27.583Z,6.73
2018-04-18T14:46:54.582Z,6.13
2018-04-18T14:49:21.588Z,5.77
2018-04-18T14:51:49.419Z,6.23
2018-04-18T14:54:16.425Z,6.07
2018-04-18T14:56:43.445Z,6.33
2018-04-18T14:59:11.212Z,6.33
2018-04-18T15:01:38.222Z,6.10
2018-04-18T15:04:05.322Z,5.77
2018-04-18T15:06:33.055Z,5.53
2018-04-18T15:09:00.032Z,6.17
2018-04-18T15:11:27.793Z,6.20
2018-04-18T15:13:54.791Z,6.27
2018-04-18T15:16:21.815Z,6.47
2018-04-18T15:18:48.891Z,6.47
2018-04-18T15:21:15.996Z,6.90
2018-04-18T15:23:43.041Z,6.43
2018-04-18T15:26:10.139Z,6.00
2018-04-18T15:28:37.527Z,6.27
2018-04-18T15:31:04.631Z,6.40
2018-04-18T15:33:31.735Z,6.10
2018-04-18T15:35:58.816Z,7.37
2018-04-18T15:38:25.866Z,6.10
2018-04-18T15:40:52.888Z,6.50
2018-04-18T15:43:19.866Z,7.10
2018-04-18T15:45:46.839Z,8.40
2018-04-18T15:48:13.866Z,5.83
2018-04-18T15:50:40.850Z,6.40
2018-04-18T15:53:08.604Z,5.80
2018-04-18T15:55:35.651Z,5.73
2018-04-18T15:58:02.671Z,5.80
2018-04-18T16:00:29.691Z,6.63
2018-04-18T16:02:56.699Z,5.93
2018-04-18T16:05:23.754Z,5.90
2018-04-18T16:07:50.773Z,5.50
2018-04-18T16:10:17.786Z,6.43
2018-04-18T16:12:44.791Z,7.70
2018-04-18T16:15:12.641Z,6.30
2018-04-18T16:17:39.714Z,11.47
2018-04-18T16:20:06.806Z,6.50
2018-04-18T16:22:33.896Z,6.73
2018-04-18T16:25:01.831Z,6.30
2018-04-18T16:27:28.916Z,7.53
2018-04-18T16:29:56.798Z,7.63
2018-04-18T16:32:24.589Z,7.33
2018-04-18T16:34:51.812Z,6.80
2018-04-18T16:37:18.908Z,7.17
2018-04-18T16:39:46.050Z,7.53
2018-04-18T16:42:13.091Z,6.00
2018-04-18T16:44:40.184Z,7.27
2018-04-18T16:47:07.289Z,8.30
2018-04-18T16:49:34.346Z,7.00
2018-04-18T16:52:01.418Z,7.30
2018-04-18T16:54:28.491Z,7.20
2018-04-18T16:56:55.562Z,7.57
2018-04-18T16:59:22.677Z,7.63
2018-04-18T17:01:49.704Z,7.23
2018-04-18T17:04:16.806Z,8.43
2018-04-18T17:06:43.930Z,8.13
2018-04-18T17:09:10.977Z,7.67
2018-04-18T17:11:38.813Z,7.77
2018-04-18T17:14:05.973Z,8.17
2018-04-18T17:16:33.101Z,7.80
2018-04-18T17:19:00.182Z,7.53
2018-04-18T17:21:27.379Z,7.87
2018-04-18T17:23:54.514Z,8.13
2018-04-18T17:26:21.621Z,7.57
2018-04-18T17:28:48.831Z,8.13
2018-04-18T17:31:15.911Z,8.27
2018-04-18T17:33:43.017Z,7.97
2018-04-18T17:36:10.152Z,7.07
2018-04-18T17:38:37.298Z,7.77
2018-04-18T17:41:05.128Z,8.33
2018-04-18T17:43:32.230Z,7.73
2018-04-18T17:45:59.361Z,7.20
2018-04-18T17:48:26.433Z,7.63
2018-04-18T17:50:53.564Z,7.20
2018-04-18T17:53:21.436Z,6.77
2018-04-18T17:55:48.528Z,6.60
2018-04-18T17:58:15.647Z,7.63
2018-04-18T18:00:42.727Z,6.90
2018-04-18T18:03:10.985Z,7.13
2018-04-18T18:05:37.988Z,6.90
2018-04-18T18:08:06.053Z,24.90
2018-04-18T18:10:33.317Z,7.43
2018-04-18T18:13:00.333Z,7.83
2018-04-18T18:15:27.334Z,7.97
2018-04-18T18:17:54.351Z,7.60
2018-04-18T18:20:21.413Z,7.20
2018-04-18T18:22:49.511Z,8.80
2018-04-18T18:25:16.627Z,7.87
2018-04-18T18:27:44.476Z,8.10
2018-04-18T18:30:11.576Z,8.13
2018-04-18T18:32:38.636Z,7.57
2018-04-18T18:35:05.673Z,8.23
2018-04-18T18:37:32.759Z,8.20
2018-04-18T18:39:59.876Z,7.60
2018-04-18T18:42:26.916Z,7.63
2018-04-18T18:44:53.929Z,8.70
2018-04-18T18:47:21.101Z,8.93
2018-04-18T18:49:48.853Z,9.17
2018-04-18T18:52:16.600Z,8.20
2018-04-18T18:54:43.589Z,8.73
2018-04-18T18:57:11.351Z,7.83
2018-04-18T18:59:38.433Z,7.90
2018-04-18T19:02:05.505Z,10.27
2018-04-18T19:04:32.498Z,16.33
2018-04-18T19:07:00.233Z,10.93
2018-04-18T19:09:27.256Z,11.50
2018-04-18T19:11:54.284Z,10.70
2018-04-18T19:14:21.294Z,8.63
2018-04-18T19:16:49.070Z,17.60
2018-04-18T19:19:16.076Z,9.70
2018-04-18T19:21:43.762Z,12.20
2018-04-18T19:24:11.561Z,8.90
2018-04-18T19:26:38.601Z,7.20
2018-04-18T19:29:05.616Z,9.07
2018-04-18T19:31:32.647Z,6.53
2018-04-18T19:33:59.707Z,6.43
2018-04-18T19:36:26.789Z,8.37
2018-04-18T19:38:53.831Z,6.87
2018-04-18T19:41:21.559Z,6.00
2018-04-18T19:43:49.471Z,6.20
2018-04-18T19:46:17.487Z,6.27
2018-04-18T19:48:44.567Z,6.00
2018-04-18T19:51:12.357Z,5.73
2018-04-18T19:53:39.369Z,6.50
2018-04-18T19:56:07.211Z,6.50
2018-04-18T19:58:34.195Z,6.17
2018-04-18T20:01:01.935Z,7.10
2018-04-18T20:03:28.998Z,6.40
2018-04-18T20:05:56.824Z,6.70
2018-04-18T20:08:24.509Z,6.60
2018-04-18T20:10:51.915Z,6.83
2018-04-18T20:13:18.983Z,6.83
2018-04-18T20:15:46.082Z,6.20
2018-04-18T20:18:13.811Z,6.00
2018-04-18T20:20:40.807Z,6.07
2018-04-18T20:23:07.839Z,6.43
2018-04-18T20:25:34.831Z,6.43
2018-04-18T20:28:01.837Z,6.80
2018-04-18T20:30:29.616Z,6.70
2018-04-18T20:32:56.642Z,6.67
2018-04-18T20:35:23.705Z,6.63
2018-04-18T20:37:51.335Z,6.40
2018-04-18T20:40:19.345Z,6.60
2018-04-18T20:42:58.393Z,7.10
2018-04-18T20:45:25.483Z,6.97
2018-04-18T20:47:52.536Z,6.90
2018-04-18T20:50:19.576Z,6.33
2018-04-18T20:52:46.636Z,5.90
2018-04-18T20:55:13.703Z,6.93
2018-04-18T20:57:40.747Z,6.80
2018-04-18T21:00:08.584Z,6.23
2018-04-18T21:02:47.374Z,6.50
2018-04-18T21:07:50.613Z,6.47
2018-04-18T21:10:17.646Z,5.83
2018-04-18T21:12:44.852Z,6.00
2018-04-18T21:15:11.909Z,6.17
2018-04-18T21:17:38.954Z,6.47
2018-04-18T21:20:06.828Z,6.43
2018-04-18T21:22:33.912Z,7.33
2018-04-18T21:25:00.972Z,6.83
2018-04-18T21:27:28.051Z,7.27
2018-04-18T21:29:55.851Z,6.80
2018-04-18T21:32:23.002Z,6.90
2018-04-18T21:34:50.099Z,7.00
2018-04-18T21:37:17.165Z,6.67
2018-04-18T21:39:45.034Z,6.97
2018-04-18T21:42:12.856Z,6.90
2018-04-18T21:44:39.944Z,7.07
2018-04-18T21:47:07.759Z,6.97
2018-04-18T21:49:34.821Z,7.50
2018-04-18T21:52:01.873Z,8.13
2018-04-18T21:54:28.966Z,8.23
2018-04-18T21:56:56.824Z,8.77
2018-04-18T21:59:24.666Z,8.47
2018-04-18T22:01:51.738Z,8.50
2018-04-18T22:04:19.491Z,7.83
2018-04-18T22:06:46.523Z,9.80
2018-04-18T22:09:13.623Z,9.23
2018-04-18T22:11:40.623Z,8.27
2018-04-18T22:14:07.621Z,8.50
2018-04-18T22:16:34.643Z,8.40
2018-04-18T22:19:02.426Z,8.60
2018-04-18T22:21:30.517Z,8.10
2018-04-18T22:23:57.504Z,7.90
2018-04-18T22:26:24.487Z,8.20
2018-04-18T22:31:36.177Z,8.50
2018-04-18T22:34:09.072Z,8.07
2018-04-18T22:36:36.472Z,8.17
2018-04-18T22:39:03.684Z,7.53
2018-04-18T22:41:31.491Z,7.70
2018-04-18T22:43:58.502Z,7.90
2018-04-18T22:46:25.499Z,7.33
2018-04-18T22:48:52.471Z,7.57
2018-04-18T22:51:20.197Z,7.73
2018-04-18T22:53:47.205Z,7.60
2018-04-18T22:56:14.195Z,7.90
2018-04-18T22:58:41.183Z,7.90
2018-04-18T23:01:08.910Z,7.07
2018-04-18T23:03:37.028Z,7.33
2018-04-18T23:06:04.800Z,7.20
2018-04-18T23:08:33.568Z,7.73
2018-04-18T23:11:00.609Z,7.67
2018-04-18T23:13:27.708Z,7.33
2018-04-18T23:15:54.698Z,7.20
2018-04-18T23:18:21.661Z,7.30
2018-04-18T23:20:48.745Z,7.40
2018-04-18T23:23:15.708Z,6.97
2018-04-18T23:25:44.875Z,7.20
2018-04-18T23:28:13.753Z,7.43
2018-04-18T23:30:41.496Z,6.90
2018-04-18T23:33:09.457Z,7.10
2018-04-18T23:35:36.812Z,6.83
2018-04-18T23:38:05.190Z,7.67
2018-04-18T23:40:32.162Z,7.30
2018-04-18T23:42:59.886Z,7.00
2018-04-18T23:45:26.935Z,7.63
2018-04-18T23:47:54.665Z,7.80
2018-04-18T23:50:21.715Z,6.70
2018-04-18T23:52:48.820Z,7.00
2018-04-18T23:55:15.820Z,6.97
2018-04-18T23:57:44.344Z,7.13
